sensor_id;sensor_type;location;lat;lon;timestamp;P1;durP1;ratioP1;P2;durP2;ratioP2
74939;SDS011;63505;45.226;37.908;2023-06-22T00:00:55;13.82;;;8.75;;
74939;SDS011;63505;45.226;37.908;2023-06-22T00:03:22;13.75;;;9.35;;
74939;SDS011;63505;45.226;37.908;2023-06-22T00:05:49;12.85;;;9.68;;
74939;SDS011;63505;45.226;37.908;2023-06-22T00:08:16;15.75;;;9.38;;
74939;SDS011;63505;45.226;37.908;2023-06-22T00:10:43;13.05;;;9.32;;
74939;SDS011;63505;45.226;37.908;2023-06-22T00:13:10;14.90;;;8.38;;
74939;SDS011;63505;45.226;37.908;2023-06-22T00:15:37;14.30;;;8.25;;
74939;SDS011;63505;45.226;37.908;2023-06-22T00:18:07;14.18;;;7.63;;
74939;SDS011;63505;45.226;37.908;2023-06-22T00:20:34;11.57;;;7.70;;
74939;SDS011;63505;45.226;37.908;2023-06-22T00:23:03;16.00;;;8.57;;
74939;SDS011;63505;45.226;37.908;2023-06-22T00:25:39;13.80;;;8.98;;
74939;SDS011;63505;45.226;37.908;2023-06-22T00:28:06;13.20;;;8.38;;
74939;SDS011;63505;45.226;37.908;2023-06-22T00:30:34;13.60;;;8.25;;
74939;SDS011;63505;45.226;37.908;2023-06-22T00:33:00;11.40;;;8.18;;
74939;SDS011;63505;45.226;37.908;2023-06-22T00:35:26;19.40;;;8.35;;
74939;SDS011;63505;45.226;37.908;2023-06-22T00:37:58;18.13;;;8.75;;
74939;SDS011;63505;45.226;37.908;2023-06-22T00:40:30;13.82;;;8.07;;
74939;SDS011;63505;45.226;37.908;2023-06-22T00:42:57;11.25;;;7.57;;
74939;SDS011;63505;45.226;37.908;2023-06-22T00:45:23;15.45;;;7.82;;
74939;SDS011;63505;45.226;37.908;2023-06-22T00:47:53;16.40;;;9.07;;
74939;SDS011;63505;45.226;37.908;2023-06-22T00:50:22;13.07;;;8.55;;
74939;SDS011;63505;45.226;37.908;2023-06-22T00:52:56;13.65;;;8.30;;
74939;SDS011;63505;45.226;37.908;2023-06-22T00:55:23;18.48;;;10.25;;
74939;SDS011;63505;45.226;37.908;2023-06-22T00:57:51;12.70;;;8.32;;
74939;SDS011;63505;45.226;37.908;2023-06-22T01:00:22;15.32;;;8.50;;
74939;SDS011;63505;45.226;37.908;2023-06-22T01:02:50;14.20;;;7.97;;
74939;SDS011;63505;45.226;37.908;2023-06-22T01:05:19;12.15;;;8.38;;
74939;SDS011;63505;45.226;37.908;2023-06-22T01:10:35;11.95;;;8.23;;
74939;SDS011;63505;45.226;37.908;2023-06-22T01:13:08;11.32;;;7.97;;
74939;SDS011;63505;45.226;37.908;2023-06-22T01:15:41;14.38;;;8.85;;
74939;SDS011;63505;45.226;37.908;2023-06-22T01:18:14;10.00;;;7.13;;
74939;SDS011;63505;45.226;37.908;2023-06-22T01:20:42;12.07;;;8.23;;
74939;SDS011;63505;45.226;37.908;2023-06-22T01:23:20;12.65;;;8.55;;
74939;SDS011;63505;45.226;37.908;2023-06-22T01:25:57;12.35;;;7.65;;
74939;SDS011;63505;45.226;37.908;2023-06-22T01:31:12;13.30;;;8.65;;
74939;SDS011;63505;45.226;37.908;2023-06-22T01:33:42;13.23;;;8.25;;
74939;SDS011;63505;45.226;37.908;2023-06-22T01:36:12;13.35;;;8.38;;
74939;SDS011;63505;45.226;37.908;2023-06-22T01:38:39;14.98;;;8.35;;
74939;SDS011;63505;45.226;37.908;2023-06-22T01:41:05;15.65;;;8.73;;
74939;SDS011;63505;45.226;37.908;2023-06-22T01:43:31;15.73;;;8.77;;
74939;SDS011;63505;45.226;37.908;2023-06-22T01:45:59;13.30;;;8.80;;
74939;SDS011;63505;45.226;37.908;2023-06-22T01:48:26;18.73;;;8.40;;
74939;SDS011;63505;45.226;37.908;2023-06-22T01:50:53;14.95;;;8.05;;
74939;SDS011;63505;45.226;37.908;2023-06-22T01:53:22;16.17;;;9.32;;
74939;SDS011;63505;45.226;37.908;2023-06-22T01:55:50;13.52;;;8.27;;
74939;SDS011;63505;45.226;37.908;2023-06-22T01:58:17;18.75;;;9.15;;
74939;SDS011;63505;45.226;37.908;2023-06-22T02:00:46;15.43;;;10.18;;
74939;SDS011;63505;45.226;37.908;2023-06-22T02:03:19;17.25;;;8.00;;
74939;SDS011;63505;45.226;37.908;2023-06-22T02:05:52;12.40;;;7.93;;
74939;SDS011;63505;45.226;37.908;2023-06-22T02:08:33;17.23;;;9.20;;
74939;SDS011;63505;45.226;37.908;2023-06-22T02:11:11;15.13;;;8.48;;
74939;SDS011;63505;45.226;37.908;2023-06-22T02:16:11;12.80;;;9.30;;
74939;SDS011;63505;45.226;37.908;2023-06-22T02:18:45;16.77;;;10.07;;
74939;SDS011;63505;45.226;37.908;2023-06-22T02:21:12;17.38;;;9.10;;
74939;SDS011;63505;45.226;37.908;2023-06-22T02:23:38;17.52;;;9.43;;
74939;SDS011;63505;45.226;37.908;2023-06-22T02:26:04;15.48;;;9.70;;
74939;SDS011;63505;45.226;37.908;2023-06-22T02:28:30;16.90;;;10.35;;
74939;SDS011;63505;45.226;37.908;2023-06-22T02:30:56;17.35;;;10.73;;
74939;SDS011;63505;45.226;37.908;2023-06-22T02:33:22;18.85;;;9.77;;
74939;SDS011;63505;45.226;37.908;2023-06-22T02:35:48;15.30;;;10.63;;
74939;SDS011;63505;45.226;37.908;2023-06-22T02:38:14;17.05;;;11.18;;
74939;SDS011;63505;45.226;37.908;2023-06-22T02:40:40;17.60;;;11.35;;
74939;SDS011;63505;45.226;37.908;2023-06-22T02:43:06;16.70;;;10.65;;
74939;SDS011;63505;45.226;37.908;2023-06-22T02:45:32;16.67;;;10.20;;
74939;SDS011;63505;45.226;37.908;2023-06-22T02:47:58;18.90;;;11.35;;
74939;SDS011;63505;45.226;37.908;2023-06-22T02:50:23;18.45;;;10.77;;
74939;SDS011;63505;45.226;37.908;2023-06-22T02:52:51;19.90;;;12.18;;
74939;SDS011;63505;45.226;37.908;2023-06-22T02:55:17;17.10;;;11.32;;
74939;SDS011;63505;45.226;37.908;2023-06-22T02:57:51;18.67;;;12.30;;
74939;SDS011;63505;45.226;37.908;2023-06-22T03:00:18;21.17;;;12.23;;
74939;SDS011;63505;45.226;37.908;2023-06-22T03:02:47;18.77;;;11.40;;
74939;SDS011;63505;45.226;37.908;2023-06-22T03:05:14;17.67;;;11.23;;
74939;SDS011;63505;45.226;37.908;2023-06-22T03:07:46;19.23;;;12.15;;
74939;SDS011;63505;45.226;37.908;2023-06-22T03:10:12;16.58;;;11.10;;
74939;SDS011;63505;45.226;37.908;2023-06-22T03:12:40;17.58;;;11.25;;
74939;SDS011;63505;45.226;37.908;2023-06-22T03:15:07;17.83;;;11.02;;
74939;SDS011;63505;45.226;37.908;2023-06-22T03:17:35;20.20;;;12.80;;
74939;SDS011;63505;45.226;37.908;2023-06-22T03:20:03;15.85;;;11.40;;
74939;SDS011;63505;45.226;37.908;2023-06-22T03:22:43;18.88;;;12.20;;
74939;SDS011;63505;45.226;37.908;2023-06-22T03:25:10;17.67;;;11.73;;
74939;SDS011;63505;45.226;37.908;2023-06-22T03:27:41;20.40;;;12.02;;
74939;SDS011;63505;45.226;37.908;2023-06-22T03:30:09;23.15;;;11.75;;
74939;SDS011;63505;45.226;37.908;2023-06-22T03:32:36;17.30;;;12.20;;
74939;SDS011;63505;45.226;37.908;2023-06-22T03:35:04;16.80;;;11.63;;
74939;SDS011;63505;45.226;37.908;2023-06-22T03:37:32;18.75;;;10.82;;
74939;SDS011;63505;45.226;37.908;2023-06-22T03:39:59;27.98;;;20.00;;
74939;SDS011;63505;45.226;37.908;2023-06-22T03:42:25;34.10;;;12.77;;
74939;SDS011;63505;45.226;37.908;2023-06-22T03:44:52;21.15;;;13.02;;
74939;SDS011;63505;45.226;37.908;2023-06-22T03:47:18;18.30;;;12.43;;
74939;SDS011;63505;45.226;37.908;2023-06-22T03:49:44;19.52;;;10.48;;
74939;SDS011;63505;45.226;37.908;2023-06-22T03:52:10;21.67;;;13.02;;
74939;SDS011;63505;45.226;37.908;2023-06-22T03:54:36;20.00;;;12.52;;
74939;SDS011;63505;45.226;37.908;2023-06-22T03:57:02;18.42;;;11.00;;
74939;SDS011;63505;45.226;37.908;2023-06-22T03:59:28;16.58;;;11.13;;
74939;SDS011;63505;45.226;37.908;2023-06-22T04:01:53;18.45;;;10.55;;
74939;SDS011;63505;45.226;37.908;2023-06-22T04:04:19;17.30;;;9.80;;
74939;SDS011;63505;45.226;37.908;2023-06-22T04:06:46;14.90;;;9.50;;
74939;SDS011;63505;45.226;37.908;2023-06-22T04:09:12;13.07;;;8.55;;
74939;SDS011;63505;45.226;37.908;2023-06-22T04:11:37;18.95;;;11.95;;
74939;SDS011;63505;45.226;37.908;2023-06-22T04:14:03;13.70;;;9.48;;
74939;SDS011;63505;45.226;37.908;2023-06-22T04:16:29;14.95;;;10.15;;
74939;SDS011;63505;45.226;37.908;2023-06-22T04:18:55;14.32;;;9.93;;
74939;SDS011;63505;45.226;37.908;2023-06-22T04:21:21;15.05;;;9.15;;
74939;SDS011;63505;45.226;37.908;2023-06-22T04:23:47;13.80;;;9.57;;
74939;SDS011;63505;45.226;37.908;2023-06-22T04:26:13;13.95;;;9.27;;
74939;SDS011;63505;45.226;37.908;2023-06-22T04:28:40;17.00;;;10.88;;
74939;SDS011;63505;45.226;37.908;2023-06-22T04:31:06;16.38;;;9.57;;
74939;SDS011;63505;45.226;37.908;2023-06-22T04:33:32;17.00;;;9.68;;
74939;SDS011;63505;45.226;37.908;2023-06-22T04:35:58;13.68;;;9.20;;
74939;SDS011;63505;45.226;37.908;2023-06-22T04:38:29;13.82;;;9.23;;
74939;SDS011;63505;45.226;37.908;2023-06-22T04:40:58;13.10;;;9.07;;
74939;SDS011;63505;45.226;37.908;2023-06-22T04:43:27;15.30;;;10.05;;
74939;SDS011;63505;45.226;37.908;2023-06-22T04:48:31;15.13;;;8.93;;
74939;SDS011;63505;45.226;37.908;2023-06-22T04:51:01;13.98;;;8.88;;
74939;SDS011;63505;45.226;37.908;2023-06-22T04:53:29;15.77;;;8.70;;
74939;SDS011;63505;45.226;37.908;2023-06-22T04:55:56;11.73;;;8.05;;
74939;SDS011;63505;45.226;37.908;2023-06-22T04:58:21;17.13;;;9.00;;
74939;SDS011;63505;45.226;37.908;2023-06-22T05:00:47;12.57;;;7.95;;
74939;SDS011;63505;45.226;37.908;2023-06-22T05:03:13;15.23;;;8.98;;
74939;SDS011;63505;45.226;37.908;2023-06-22T05:05:39;17.73;;;9.00;;
74939;SDS011;63505;45.226;37.908;2023-06-22T05:08:05;15.23;;;9.88;;
74939;SDS011;63505;45.226;37.908;2023-06-22T05:10:32;14.63;;;8.65;;
74939;SDS011;63505;45.226;37.908;2023-06-22T05:12:59;13.00;;;8.05;;
74939;SDS011;63505;45.226;37.908;2023-06-22T05:15:24;14.07;;;8.20;;
74939;SDS011;63505;45.226;37.908;2023-06-22T05:17:54;10.75;;;7.47;;
74939;SDS011;63505;45.226;37.908;2023-06-22T05:20:19;13.27;;;8.32;;
74939;SDS011;63505;45.226;37.908;2023-06-22T05:22:47;12.02;;;6.88;;
74939;SDS011;63505;45.226;37.908;2023-06-22T05:25:13;16.42;;;8.68;;
74939;SDS011;63505;45.226;37.908;2023-06-22T05:27:39;16.30;;;7.88;;
74939;SDS011;63505;45.226;37.908;2023-06-22T05:30:07;14.75;;;10.25;;
74939;SDS011;63505;45.226;37.908;2023-06-22T05:32:34;16.88;;;8.10;;
74939;SDS011;63505;45.226;37.908;2023-06-22T05:35:01;19.13;;;7.75;;
74939;SDS011;63505;45.226;37.908;2023-06-22T05:37:28;16.90;;;7.75;;
74939;SDS011;63505;45.226;37.908;2023-06-22T05:39:54;17.83;;;9.20;;
74939;SDS011;63505;45.226;37.908;2023-06-22T05:42:21;16.30;;;9.38;;
74939;SDS011;63505;45.226;37.908;2023-06-22T05:44:47;14.35;;;8.10;;
74939;SDS011;63505;45.226;37.908;2023-06-22T05:47:13;14.73;;;7.88;;
74939;SDS011;63505;45.226;37.908;2023-06-22T05:49:39;14.55;;;7.95;;
74939;SDS011;63505;45.226;37.908;2023-06-22T05:52:05;10.98;;;7.68;;
74939;SDS011;63505;45.226;37.908;2023-06-22T05:54:31;12.93;;;6.63;;
74939;SDS011;63505;45.226;37.908;2023-06-22T05:56:57;10.20;;;6.97;;
74939;SDS011;63505;45.226;37.908;2023-06-22T05:59:22;14.18;;;6.90;;
74939;SDS011;63505;45.226;37.908;2023-06-22T06:01:48;12.10;;;7.78;;
74939;SDS011;63505;45.226;37.908;2023-06-22T06:04:18;9.88;;;6.78;;
74939;SDS011;63505;45.226;37.908;2023-06-22T06:06:45;11.48;;;7.82;;
74939;SDS011;63505;45.226;37.908;2023-06-22T06:09:12;11.32;;;6.38;;
74939;SDS011;63505;45.226;37.908;2023-06-22T06:11:39;11.68;;;6.57;;
74939;SDS011;63505;45.226;37.908;2023-06-22T06:14:05;10.70;;;7.22;;
74939;SDS011;63505;45.226;37.908;2023-06-22T06:16:31;11.25;;;7.07;;
74939;SDS011;63505;45.226;37.908;2023-06-22T06:18:57;13.55;;;7.95;;
74939;SDS011;63505;45.226;37.908;2023-06-22T06:21:24;12.88;;;7.13;;
74939;SDS011;63505;45.226;37.908;2023-06-22T06:23:49;13.18;;;6.80;;
74939;SDS011;63505;45.226;37.908;2023-06-22T06:26:15;12.43;;;6.75;;
74939;SDS011;63505;45.226;37.908;2023-06-22T06:28:45;12.00;;;7.13;;
74939;SDS011;63505;45.226;37.908;2023-06-22T06:31:11;10.00;;;6.90;;
74939;SDS011;63505;45.226;37.908;2023-06-22T06:33:37;11.90;;;5.82;;
74939;SDS011;63505;45.226;37.908;2023-06-22T06:36:03;10.18;;;6.63;;
74939;SDS011;63505;45.226;37.908;2023-06-22T06:38:29;10.27;;;7.05;;
74939;SDS011;63505;45.226;37.908;2023-06-22T06:40:56;10.32;;;6.78;;
74939;SDS011;63505;45.226;37.908;2023-06-22T06:43:22;11.60;;;6.40;;
74939;SDS011;63505;45.226;37.908;2023-06-22T06:45:49;9.70;;;6.93;;
74939;SDS011;63505;45.226;37.908;2023-06-22T06:48:14;10.23;;;6.30;;
74939;SDS011;63505;45.226;37.908;2023-06-22T06:50:40;12.02;;;7.65;;
74939;SDS011;63505;45.226;37.908;2023-06-22T06:53:09;8.20;;;6.18;;
74939;SDS011;63505;45.226;37.908;2023-06-22T06:55:35;10.48;;;6.85;;
74939;SDS011;63505;45.226;37.908;2023-06-22T06:58:01;8.93;;;6.50;;
74939;SDS011;63505;45.226;37.908;2023-06-22T07:00:28;12.13;;;6.07;;
74939;SDS011;63505;45.226;37.908;2023-06-22T07:02:54;9.52;;;6.47;;
74939;SDS011;63505;45.226;37.908;2023-06-22T07:05:19;10.52;;;6.40;;
74939;SDS011;63505;45.226;37.908;2023-06-22T07:07:45;12.77;;;6.78;;
74939;SDS011;63505;45.226;37.908;2023-06-22T07:10:11;12.27;;;7.35;;
74939;SDS011;63505;45.226;37.908;2023-06-22T07:12:37;10.07;;;6.72;;
74939;SDS011;63505;45.226;37.908;2023-06-22T07:15:03;9.73;;;6.53;;
74939;SDS011;63505;45.226;37.908;2023-06-22T07:17:30;9.63;;;6.68;;
74939;SDS011;63505;45.226;37.908;2023-06-22T07:19:56;8.63;;;6.15;;
74939;SDS011;63505;45.226;37.908;2023-06-22T07:22:22;11.93;;;6.30;;
74939;SDS011;63505;45.226;37.908;2023-06-22T07:24:48;8.98;;;6.00;;
74939;SDS011;63505;45.226;37.908;2023-06-22T07:27:14;8.23;;;6.00;;
74939;SDS011;63505;45.226;37.908;2023-06-22T07:29:44;8.43;;;5.22;;
74939;SDS011;63505;45.226;37.908;2023-06-22T07:32:10;9.63;;;5.65;;
74939;SDS011;63505;45.226;37.908;2023-06-22T07:34:36;9.55;;;5.65;;
74939;SDS011;63505;45.226;37.908;2023-06-22T07:37:02;9.45;;;5.30;;
74939;SDS011;63505;45.226;37.908;2023-06-22T07:39:29;8.68;;;5.70;;
74939;SDS011;63505;45.226;37.908;2023-06-22T07:41:55;10.52;;;5.50;;
74939;SDS011;63505;45.226;37.908;2023-06-22T07:44:21;15.10;;;5.47;;
74939;SDS011;63505;45.226;37.908;2023-06-22T07:46:47;8.73;;;4.40;;
74939;SDS011;63505;45.226;37.908;2023-06-22T07:49:13;9.15;;;5.57;;
74939;SDS011;63505;45.226;37.908;2023-06-22T07:51:39;9.38;;;5.38;;
74939;SDS011;63505;45.226;37.908;2023-06-22T07:54:05;12.85;;;5.38;;
74939;SDS011;63505;45.226;37.908;2023-06-22T07:56:31;9.35;;;5.60;;
74939;SDS011;63505;45.226;37.908;2023-06-22T07:58:57;14.75;;;5.85;;
74939;SDS011;63505;45.226;37.908;2023-06-22T08:01:24;9.07;;;5.47;;
74939;SDS011;63505;45.226;37.908;2023-06-22T08:03:50;10.02;;;5.10;;
74939;SDS011;63505;45.226;37.908;2023-06-22T08:06:16;9.73;;;5.50;;
74939;SDS011;63505;45.226;37.908;2023-06-22T08:08:42;12.88;;;5.07;;
74939;SDS011;63505;45.226;37.908;2023-06-22T08:11:08;10.20;;;5.15;;
74939;SDS011;63505;45.226;37.908;2023-06-22T08:13:34;11.82;;;4.70;;
74939;SDS011;63505;45.226;37.908;2023-06-22T08:16:00;7.20;;;4.63;;
74939;SDS011;63505;45.226;37.908;2023-06-22T08:18:26;7.72;;;4.07;;
74939;SDS011;63505;45.226;37.908;2023-06-22T08:20:53;9.27;;;4.50;;
74939;SDS011;63505;45.226;37.908;2023-06-22T08:23:20;7.65;;;4.22;;
74939;SDS011;63505;45.226;37.908;2023-06-22T08:25:46;8.93;;;5.32;;
74939;SDS011;63505;45.226;37.908;2023-06-22T08:28:13;7.85;;;3.67;;
74939;SDS011;63505;45.226;37.908;2023-06-22T08:30:39;11.32;;;4.10;;
74939;SDS011;63505;45.226;37.908;2023-06-22T08:33:05;7.78;;;4.30;;
74939;SDS011;63505;45.226;37.908;2023-06-22T08:35:30;5.95;;;3.22;;
74939;SDS011;63505;45.226;37.908;2023-06-22T08:37:56;6.97;;;4.00;;
74939;SDS011;63505;45.226;37.908;2023-06-22T08:40:23;9.35;;;3.70;;
74939;SDS011;63505;45.226;37.908;2023-06-22T08:42:50;13.02;;;4.30;;
74939;SDS011;63505;45.226;37.908;2023-06-22T08:45:16;8.90;;;3.50;;
74939;SDS011;63505;45.226;37.908;2023-06-22T08:47:42;4.70;;;2.65;;
74939;SDS011;63505;45.226;37.908;2023-06-22T08:50:08;6.47;;;3.50;;
74939;SDS011;63505;45.226;37.908;2023-06-22T08:52:37;7.55;;;3.33;;
74939;SDS011;63505;45.226;37.908;2023-06-22T08:55:07;6.82;;;3.50;;
74939;SDS011;63505;45.226;37.908;2023-06-22T08:57:34;5.22;;;3.20;;
74939;SDS011;63505;45.226;37.908;2023-06-22T09:02:30;6.35;;;3.25;;
74939;SDS011;63505;45.226;37.908;2023-06-22T09:04:57;5.30;;;2.85;;
74939;SDS011;63505;45.226;37.908;2023-06-22T09:07:23;7.70;;;3.38;;
74939;SDS011;63505;45.226;37.908;2023-06-22T09:09:50;5.63;;;3.67;;
74939;SDS011;63505;45.226;37.908;2023-06-22T09:12:17;6.30;;;3.92;;
74939;SDS011;63505;45.226;37.908;2023-06-22T09:14:45;7.50;;;3.47;;
74939;SDS011;63505;45.226;37.908;2023-06-22T09:17:12;6.05;;;3.22;;
74939;SDS011;63505;45.226;37.908;2023-06-22T09:19:38;7.47;;;3.75;;
74939;SDS011;63505;45.226;37.908;2023-06-22T09:22:04;7.63;;;3.03;;
74939;SDS011;63505;45.226;37.908;2023-06-22T09:24:31;17.23;;;3.50;;
74939;SDS011;63505;45.226;37.908;2023-06-22T09:26:58;5.93;;;2.90;;
74939;SDS011;63505;45.226;37.908;2023-06-22T09:29:24;5.53;;;2.85;;
74939;SDS011;63505;45.226;37.908;2023-06-22T09:31:50;6.88;;;2.85;;
74939;SDS011;63505;45.226;37.908;2023-06-22T09:34:18;6.35;;;2.78;;
74939;SDS011;63505;45.226;37.908;2023-06-22T09:36:48;5.93;;;3.45;;
74939;SDS011;63505;45.226;37.908;2023-06-22T09:39:14;7.60;;;3.35;;
74939;SDS011;63505;45.226;37.908;2023-06-22T09:41:40;5.63;;;3.30;;
74939;SDS011;63505;45.226;37.908;2023-06-22T09:44:06;6.88;;;3.00;;
74939;SDS011;63505;45.226;37.908;2023-06-22T09:46:31;5.72;;;2.85;;
74939;SDS011;63505;45.226;37.908;2023-06-22T09:48:57;6.45;;;3.15;;
74939;SDS011;63505;45.226;37.908;2023-06-22T09:51:23;6.25;;;3.38;;
74939;SDS011;63505;45.226;37.908;2023-06-22T09:53:49;5.43;;;2.90;;
74939;SDS011;63505;45.226;37.908;2023-06-22T09:56:16;8.38;;;4.13;;
74939;SDS011;63505;45.226;37.908;2023-06-22T09:58:43;4.53;;;2.53;;
74939;SDS011;63505;45.226;37.908;2023-06-22T10:01:10;5.93;;;2.90;;
74939;SDS011;63505;45.226;37.908;2023-06-22T10:03:36;5.93;;;3.92;;
74939;SDS011;63505;45.226;37.908;2023-06-22T10:06:02;6.90;;;2.97;;
74939;SDS011;63505;45.226;37.908;2023-06-22T10:08:28;5.53;;;3.67;;
74939;SDS011;63505;45.226;37.908;2023-06-22T10:10:54;6.65;;;3.47;;
74939;SDS011;63505;45.226;37.908;2023-06-22T10:13:20;6.55;;;2.72;;
74939;SDS011;63505;45.226;37.908;2023-06-22T10:15:46;11.80;;;3.30;;
74939;SDS011;63505;45.226;37.908;2023-06-22T10:18:16;11.32;;;3.10;;
74939;SDS011;63505;45.226;37.908;2023-06-22T10:20:43;6.40;;;3.40;;
74939;SDS011;63505;45.226;37.908;2023-06-22T10:23:09;5.35;;;3.03;;
74939;SDS011;63505;45.226;37.908;2023-06-22T10:25:35;10.52;;;3.58;;
74939;SDS011;63505;45.226;37.908;2023-06-22T10:28:01;6.60;;;2.83;;
74939;SDS011;63505;45.226;37.908;2023-06-22T10:30:26;7.97;;;3.35;;
74939;SDS011;63505;45.226;37.908;2023-06-22T10:32:54;5.07;;;2.88;;
74939;SDS011;63505;45.226;37.908;2023-06-22T10:35:20;7.43;;;3.00;;
74939;SDS011;63505;45.226;37.908;2023-06-22T10:37:46;5.30;;;3.45;;
74939;SDS011;63505;45.226;37.908;2023-06-22T10:40:12;7.90;;;3.53;;
74939;SDS011;63505;45.226;37.908;2023-06-22T10:42:39;8.52;;;3.70;;
74939;SDS011;63505;45.226;37.908;2023-06-22T10:45:05;9.45;;;3.17;;
74939;SDS011;63505;45.226;37.908;2023-06-22T10:47:31;7.45;;;3.45;;
74939;SDS011;63505;45.226;37.908;2023-06-22T10:49:57;4.65;;;2.80;;
74939;SDS011;63505;45.226;37.908;2023-06-22T10:52:23;6.38;;;3.17;;
74939;SDS011;63505;45.226;37.908;2023-06-22T10:54:49;5.63;;;3.00;;
74939;SDS011;63505;45.226;37.908;2023-06-22T10:57:15;8.15;;;3.22;;
74939;SDS011;63505;45.226;37.908;2023-06-22T10:59:40;7.75;;;3.22;;
74939;SDS011;63505;45.226;37.908;2023-06-22T11:02:06;4.93;;;3.15;;
74939;SDS011;63505;45.226;37.908;2023-06-22T11:04:32;4.88;;;3.03;;
74939;SDS011;63505;45.226;37.908;2023-06-22T11:06:58;8.50;;;3.00;;
74939;SDS011;63505;45.226;37.908;2023-06-22T11:09:24;15.98;;;4.03;;
74939;SDS011;63505;45.226;37.908;2023-06-22T11:11:50;4.72;;;2.70;;
74939;SDS011;63505;45.226;37.908;2023-06-22T11:14:20;7.40;;;2.97;;
74939;SDS011;63505;45.226;37.908;2023-06-22T11:16:46;6.85;;;3.03;;
74939;SDS011;63505;45.226;37.908;2023-06-22T11:19:13;4.72;;;3.03;;
74939;SDS011;63505;45.226;37.908;2023-06-22T11:21:39;6.28;;;3.08;;
74939;SDS011;63505;45.226;37.908;2023-06-22T11:24:05;5.90;;;2.97;;
74939;SDS011;63505;45.226;37.908;2023-06-22T11:26:31;8.00;;;3.45;;
74939;SDS011;63505;45.226;37.908;2023-06-22T11:28:57;6.10;;;3.20;;
74939;SDS011;63505;45.226;37.908;2023-06-22T11:31:23;6.70;;;3.58;;
74939;SDS011;63505;45.226;37.908;2023-06-22T11:33:49;5.93;;;3.45;;
74939;SDS011;63505;45.226;37.908;2023-06-22T11:36:16;5.53;;;3.88;;
74939;SDS011;63505;45.226;37.908;2023-06-22T11:38:42;8.02;;;3.50;;
74939;SDS011;63505;45.226;37.908;2023-06-22T11:41:09;6.55;;;2.72;;
74939;SDS011;63505;45.226;37.908;2023-06-22T11:43:35;7.00;;;3.05;;
74939;SDS011;63505;45.226;37.908;2023-06-22T11:46:02;6.80;;;2.97;;
74939;SDS011;63505;45.226;37.908;2023-06-22T11:48:29;6.05;;;3.17;;
74939;SDS011;63505;45.226;37.908;2023-06-22T11:50:55;5.65;;;3.08;;
74939;SDS011;63505;45.226;37.908;2023-06-22T11:53:22;6.30;;;3.03;;
74939;SDS011;63505;45.226;37.908;2023-06-22T11:55:52;5.00;;;2.80;;
74939;SDS011;63505;45.226;37.908;2023-06-22T11:58:19;8.73;;;3.05;;
74939;SDS011;63505;45.226;37.908;2023-06-22T12:00:45;5.45;;;3.13;;
74939;SDS011;63505;45.226;37.908;2023-06-22T12:03:11;6.22;;;2.45;;
74939;SDS011;63505;45.226;37.908;2023-06-22T12:05:38;12.65;;;6.45;;
74939;SDS011;63505;45.226;37.908;2023-06-22T12:08:03;7.65;;;2.92;;
74939;SDS011;63505;45.226;37.908;2023-06-22T12:10:30;9.05;;;3.13;;
74939;SDS011;63505;45.226;37.908;2023-06-22T12:12:56;12.90;;;3.20;;
74939;SDS011;63505;45.226;37.908;2023-06-22T12:15:25;6.07;;;3.25;;
74939;SDS011;63505;45.226;37.908;2023-06-22T12:17:52;7.38;;;3.30;;
74939;SDS011;63505;45.226;37.908;2023-06-22T12:20:18;6.15;;;3.15;;
74939;SDS011;63505;45.226;37.908;2023-06-22T12:22:44;4.60;;;2.90;;
74939;SDS011;63505;45.226;37.908;2023-06-22T12:25:10;10.30;;;3.08;;
74939;SDS011;63505;45.226;37.908;2023-06-22T12:27:37;6.28;;;3.03;;
74939;SDS011;63505;45.226;37.908;2023-06-22T12:30:03;6.95;;;2.80;;
74939;SDS011;63505;45.226;37.908;2023-06-22T12:32:30;5.15;;;2.85;;
74939;SDS011;63505;45.226;37.908;2023-06-22T12:34:56;4.50;;;2.58;;
74939;SDS011;63505;45.226;37.908;2023-06-22T12:37:22;5.63;;;2.90;;
74939;SDS011;63505;45.226;37.908;2023-06-22T12:39:49;3.72;;;2.50;;
74939;SDS011;63505;45.226;37.908;2023-06-22T12:42:15;5.70;;;2.72;;
74939;SDS011;63505;45.226;37.908;2023-06-22T12:44:41;4.75;;;2.88;;
74939;SDS011;63505;45.226;37.908;2023-06-22T12:47:08;4.03;;;2.40;;
74939;SDS011;63505;45.226;37.908;2023-06-22T12:49:34;6.05;;;2.70;;
74939;SDS011;63505;45.226;37.908;2023-06-22T12:52:01;7.25;;;2.92;;
74939;SDS011;63505;45.226;37.908;2023-06-22T12:54:27;6.50;;;2.72;;
74939;SDS011;63505;45.226;37.908;2023-06-22T12:56:54;5.97;;;3.22;;
74939;SDS011;63505;45.226;37.908;2023-06-22T12:59:20;6.40;;;2.47;;
74939;SDS011;63505;45.226;37.908;2023-06-22T13:01:46;5.45;;;2.60;;
74939;SDS011;63505;45.226;37.908;2023-06-22T13:04:12;6.63;;;2.72;;
74939;SDS011;63505;45.226;37.908;2023-06-22T13:06:40;4.10;;;2.90;;
74939;SDS011;63505;45.226;37.908;2023-06-22T13:09:07;6.18;;;2.72;;
74939;SDS011;63505;45.226;37.908;2023-06-22T13:11:34;5.30;;;2.90;;
74939;SDS011;63505;45.226;37.908;2023-06-22T13:13:59;5.07;;;2.28;;
74939;SDS011;63505;45.226;37.908;2023-06-22T13:16:25;5.03;;;2.85;;
74939;SDS011;63505;45.226;37.908;2023-06-22T13:18:51;4.70;;;2.65;;
74939;SDS011;63505;45.226;37.908;2023-06-22T13:21:17;4.15;;;2.40;;
74939;SDS011;63505;45.226;37.908;2023-06-22T13:23:43;6.30;;;2.33;;
74939;SDS011;63505;45.226;37.908;2023-06-22T13:26:08;7.05;;;2.95;;
74939;SDS011;63505;45.226;37.908;2023-06-22T13:28:34;7.82;;;2.30;;
74939;SDS011;63505;45.226;37.908;2023-06-22T13:31:00;6.85;;;2.55;;
74939;SDS011;63505;45.226;37.908;2023-06-22T13:33:26;7.85;;;2.33;;
74939;SDS011;63505;45.226;37.908;2023-06-22T13:35:52;4.25;;;2.45;;
74939;SDS011;63505;45.226;37.908;2023-06-22T13:38:18;7.25;;;2.85;;
74939;SDS011;63505;45.226;37.908;2023-06-22T13:40:44;4.60;;;2.80;;
74939;SDS011;63505;45.226;37.908;2023-06-22T13:43:10;6.95;;;2.33;;
74939;SDS011;63505;45.226;37.908;2023-06-22T13:45:36;5.95;;;2.65;;
74939;SDS011;63505;45.226;37.908;2023-06-22T13:48:01;5.25;;;2.63;;
74939;SDS011;63505;45.226;37.908;2023-06-22T13:50:27;5.70;;;2.70;;
74939;SDS011;63505;45.226;37.908;2023-06-22T13:52:55;6.30;;;2.78;;
74939;SDS011;63505;45.226;37.908;2023-06-22T13:55:21;8.68;;;4.40;;
74939;SDS011;63505;45.226;37.908;2023-06-22T13:57:48;4.63;;;2.35;;
74939;SDS011;63505;45.226;37.908;2023-06-22T14:00:14;5.20;;;2.60;;
74939;SDS011;63505;45.226;37.908;2023-06-22T14:02:41;11.68;;;3.05;;
74939;SDS011;63505;45.226;37.908;2023-06-22T14:05:07;6.68;;;2.72;;
74939;SDS011;63505;45.226;37.908;2023-06-22T14:07:34;8.40;;;2.40;;
74939;SDS011;63505;45.226;37.908;2023-06-22T14:10:00;5.45;;;2.97;;
74939;SDS011;63505;45.226;37.908;2023-06-22T14:12:26;6.38;;;3.28;;
74939;SDS011;63505;45.226;37.908;2023-06-22T14:14:52;5.22;;;2.20;;
74939;SDS011;63505;45.226;37.908;2023-06-22T14:17:18;11.20;;;3.47;;
74939;SDS011;63505;45.226;37.908;2023-06-22T14:19:50;5.78;;;2.90;;
74939;SDS011;63505;45.226;37.908;2023-06-22T14:22:18;6.45;;;2.80;;
74939;SDS011;63505;45.226;37.908;2023-06-22T14:24:45;5.72;;;2.55;;
74939;SDS011;63505;45.226;37.908;2023-06-22T14:27:11;5.00;;;2.20;;
74939;SDS011;63505;45.226;37.908;2023-06-22T14:29:37;4.68;;;2.70;;
74939;SDS011;63505;45.226;37.908;2023-06-22T14:32:03;3.88;;;2.25;;
74939;SDS011;63505;45.226;37.908;2023-06-22T14:34:32;8.05;;;2.38;;
74939;SDS011;63505;45.226;37.908;2023-06-22T14:37:01;6.30;;;3.35;;